Airfield :
LOGIN :

Register | Disclaimer

   EN    FR    IT 

 










Legend :    VFR   Marginal VFR   IFR   Intensive IFR   Very Intensive IFR
Visi :
Ceiling :
>= 8 km
>= 3000ft
5 to 8 km
1000 to 3000 ft
1500m to 5 km
500 to 1000 ft
800 to 1500m
200 to 500 ft
< 800m
< 200 ft
Symbols :   Thunderstorms  Fog  Heavy snow  Heavy precipitations  Wind > 20 kt
SIGMETs :     Misc.  Thunderstorms  Icing  Turbulence  Mountain Waves  Volcanic Ashes






- Airport Elevation : 416 ft
- IATA code : OVD


LEAS - Asturias

CURRENT METAR :
  • 042100Z 10009KT 060V130 7000 FEW005 SCT007 BKN009 11/10 Q1018 TEMPO 3000 BR

EXPIRED METARs :
  • 042030Z 10007KT 060V140 6000 FEW005 BKN006 11/10 Q1018 TEMPO 3000 BR BKN005
  • 042000Z 10006KT 070V140 5000 BR BKN005 11/10 Q1018 TEMPO 3000
  • 041930Z 10006KT 070V130 6000 BKN005 11/10 Q1018 TEMPO 3000 BR
  • 041913Z 10006KT 070V140 6000 BKN005 11/10 Q1018 TEMPO 3000 BR
  • 041900Z 10006KT 060V160 6000 SCT005 SCT010 11/10 Q1018 TEMPO 3000 BR BKN005
  • 041830Z 09006KT 070V130 7000 FEW005 SCT006 11/10 Q1018 TEMPO 3000 BR BKN005

TAF TAF LEAS
Valid from the 04 at 21:00 until the 05 at 21:00 UTC


042000Z 0421/0521 11006KT 9999 SCT005 BKN015 TX14/0514Z TN09/0506Z
TEMPO 0421/0510 3000 BR BKN005
TEMPO 0512/0520 07015G25KT



MET'MAP, your aeronautical weather chart ! - Copyright ORBIFLY December 2007 - Disclaimer

ORBIFLY MET'MAP TEAM :

Programming & Development : Alexandra Zaïnal
Concept & original design : Baudouin d'Aumeries
Assistance for programming : Marc-Olivier Méhu
Technical & hardware support : Manuel Goepfert

Contact : metmap@orbifly.com




SOURCES & CREDITS :

   NOAA